Time;durP1;ratioP1;P1;durP2;ratioP2;P2;SDS_P1;SDS_P2;PMS_P1;PMS_P2;Temp;Humidity;BMP_temperature;BMP_pressure;BME280_temperature;BME280_humidity;BME280_pressure;Samples;Min_cycle;Max_cycle;Signal;HPM_P1;HPM_P2
2022/09/19 00:02:02;;;;;;;7.50;1.88;;;;;;;9.65;100.00;101727.97;5286748;28;20103;-74
2022/09/19 00:04:33;;;;;;;7.80;2.00;;;;;;;9.59;100.00;101727.56;5271789;28;20048;-74
2022/09/19 00:07:04;;;;;;;8.05;1.75;;;;;;;9.57;100.00;101734.66;5286026;28;20054;-74
2022/09/19 00:09:35;;;;;;;8.60;2.10;;;;;;;9.55;100.00;101728.72;5283643;28;20025;-75
2022/09/19 00:12:07;;;;;;;7.20;1.60;;;;;;;9.53;100.00;101723.56;5283162;28;20409;-75
2022/09/19 00:14:38;;;;;;;9.88;2.28;;;;;;;9.53;100.00;101730.56;5284292;28;20516;-74
2022/09/19 00:17:09;;;;;;;8.50;1.77;;;;;;;9.49;100.00;101720.31;5288689;28;20062;-74
2022/09/19 00:19:40;;;;;;;10.68;2.47;;;;;;;9.44;100.00;101721.56;5275086;28;20095;-75
2022/09/19 00:22:12;;;;;;;9.93;2.08;;;;;;;9.44;100.00;101732.84;5283744;28;20028;-74
2022/09/19 00:24:46;;;;;;;9.13;1.70;;;;;;;9.38;100.00;101722.78;5282259;28;20028;-75
2022/09/19 00:27:19;;;;;;;5.88;2.15;;;;;;;9.41;100.00;101724.38;5288284;28;20028;-75
2022/09/19 00:29:52;;;;;;;8.77;2.13;;;;;;;9.38;100.00;101729.78;5282598;28;20068;-74
2022/09/19 00:32:23;;;;;;;10.07;1.92;;;;;;;9.35;100.00;101727.38;5287304;28;20027;-74
2022/09/19 00:34:55;;;;;;;9.95;2.40;;;;;;;9.25;100.00;101727.16;5283861;28;20488;-74
2022/09/19 00:37:26;;;;;;;6.60;1.70;;;;;;;9.22;100.00;101730.81;5282083;28;20885;-75
2022/09/19 00:39:57;;;;;;;5.57;1.88;;;;;;;9.22;100.00;101737.81;5288203;28;20435;-74
2022/09/19 00:42:29;;;;;;;6.43;1.52;;;;;;;9.18;100.00;101733.72;5288993;28;20044;-75
2022/09/19 00:45:14;;;;;;;7.20;1.80;;;;;;;9.31;100.00;101733.75;5290382;28;20027;-75
2022/09/19 00:47:48;;;;;;;8.55;2.20;;;;;;;9.19;100.00;101744.06;5283527;28;20020;-75
2022/09/19 00:50:27;;;;;;;7.68;1.95;;;;;;;9.24;100.00;101739.41;5284400;28;20025;-74
2022/09/19 00:53:03;;;;;;;8.63;1.70;;;;;;;9.21;100.00;101733.53;5283543;28;20032;-75
2022/09/19 00:55:36;;;;;;;11.35;1.98;;;;;;;9.15;100.00;101739.13;5289408;28;20107;-74
2022/09/19 00:58:36;;;;;;;6.45;1.55;;;;;;;9.18;100.00;101733.72;5288648;28;20024;-74
2022/09/19 01:01:08;;;;;;;9.35;2.13;;;;;;;9.14;100.00;101734.84;5273921;28;20400;-74
2022/09/19 01:03:39;;;;;;;9.32;2.85;;;;;;;9.19;100.00;101740.63;5282244;28;20055;-74
2022/09/19 01:06:20;;;;;;;13.32;2.13;;;;;;;9.17;100.00;101740.72;5279449;28;20055;-75
2022/09/19 01:08:59;;;;;;;8.23;1.80;;;;;;;9.26;100.00;101734.06;5281584;28;20024;-75
2022/09/19 01:11:49;;;;;;;9.00;2.50;;;;;;;9.15;100.00;101734.75;5286907;28;20043;-74
2022/09/19 01:14:46;;;;;;;6.03;1.95;;;;;;;9.38;100.00;101742.88;5285243;28;20029;-74
2022/09/19 01:17:31;;;;;;;12.35;1.90;;;;;;;9.25;100.00;101741.06;5292524;28;20123;-75
2022/09/19 01:20:11;;;;;;;7.72;1.98;;;;;;;9.22;100.00;101743.03;5280691;28;20036;-74
2022/09/19 01:23:12;;;;;;;9.13;1.85;;;;;;;9.35;100.00;101751.75;5286519;28;20028;-74
2022/09/19 01:26:14;;;;;;;12.00;2.05;;;;;;;9.27;100.00;101748.78;5285220;28;20035;-74
2022/09/19 01:29:07;;;;;;;6.78;1.60;;;;;;;9.23;100.00;101761.22;5283623;28;20142;-74
2022/09/19 01:31:43;;;;;;;13.88;1.90;;;;;;;9.19;100.00;101761.53;5277745;28;20028;-75
2022/09/19 01:34:37;;;;;;;5.47;1.38;;;;;;;9.34;100.00;101763.16;5282200;28;20032;-74
2022/09/19 01:37:30;;;;;;;11.60;2.10;;;;;;;9.32;100.00;101769.41;5279501;28;20039;-75
2022/09/19 01:40:05;;;;;;;10.23;2.10;;;;;;;9.10;100.00;101767.38;5276154;28;20021;-75
2022/09/19 01:42:54;;;;;;;8.55;1.88;;;;;;;9.16;100.00;101765.16;5289531;28;20466;-74
2022/09/19 01:45:30;;;;;;;8.50;1.98;;;;;;;9.08;100.00;101769.22;5285248;28;20024;-74
2022/09/19 01:48:10;;;;;;;8.40;2.20;;;;;;;9.17;100.00;101766.03;5287644;28;20024;-75
2022/09/19 01:50:47;;;;;;;5.50;1.38;;;;;;;9.09;100.00;101766.53;5281784;28;20405;-75
2022/09/19 01:53:41;;;;;;;9.65;1.90;;;;;;;9.20;100.00;101768.44;5290231;28;20065;-74
2022/09/19 01:56:28;;;;;;;12.43;1.95;;;;;;;9.19;100.00;101769.38;5291312;28;20199;-74
2022/09/19 01:59:30;;;;;;;6.30;1.90;;;;;;;9.27;100.00;101764.47;5288618;28;20477;-75
2022/09/19 02:02:22;;;;;;;10.50;1.73;;;;;;;9.17;100.00;101773.88;5278620;28;20058;-74
2022/09/19 02:05:09;;;;;;;10.70;2.55;;;;;;;9.22;100.00;101767.41;5285651;28;20051;-74
2022/09/19 02:07:54;;;;;;;8.93;1.65;;;;;;;9.15;100.00;101767.91;5287757;28;20381;-74
2022/09/19 02:10:31;;;;;;;8.23;1.88;;;;;;;9.13;100.00;101773.25;5295558;28;20273;-74
2022/09/19 02:13:05;;;;;;;6.57;1.88;;;;;;;9.04;100.00;101763.34;5287618;28;20039;-74
2022/09/19 02:15:41;;;;;;;10.98;1.95;;;;;;;9.08;100.00;101764.00;5288746;28;20023;-74
2022/09/19 02:18:29;;;;;;;7.57;2.17;;;;;;;9.18;100.00;101765.94;5290930;28;20032;-74
2022/09/19 02:21:10;;;;;;;9.40;2.03;;;;;;;9.09;100.00;101753.47;5284189;28;20029;-73
2022/09/19 02:23:47;;;;;;;10.00;2.45;;;;;;;9.06;100.00;101771.94;5285758;28;20020;-73
2022/09/19 02:26:21;;;;;;;8.30;2.00;;;;;;;8.99;100.00;101776.72;5292349;28;20135;-73
2022/09/19 02:28:54;;;;;;;8.55;2.25;;;;;;;8.98;100.00;101775.03;5291882;28;20033;-73
2022/09/19 02:31:26;;;;;;;9.60;1.77;;;;;;;8.94;100.00;101777.94;5280483;28;20044;-73
2022/09/19 02:34:02;;;;;;;13.45;2.15;;;;;;;8.95;100.00;101785.69;5293902;28;20032;-73
2022/09/19 02:36:46;;;;;;;11.57;1.75;;;;;;;9.02;100.00;101784.38;5277011;28;20024;-73
2022/09/19 02:39:36;;;;;;;12.88;2.80;;;;;;;9.09;100.00;101776.13;5282126;28;20035;-73
2022/09/19 02:42:34;;;;;;;9.43;1.80;;;;;;;9.16;100.00;101783.47;5284376;28;20492;-73
2022/09/19 02:45:17;;;;;;;6.07;1.92;;;;;;;9.06;100.00;101789.41;5282797;28;20020;-73
2022/09/19 02:47:51;;;;;;;6.32;1.80;;;;;;;8.91;100.00;101789.44;5294105;28;20354;-73
2022/09/19 02:50:36;;;;;;;10.07;2.45;;;;;;;8.99;100.00;101792.41;5284814;28;20481;-73
2022/09/19 02:53:16;;;;;;;8.55;2.35;;;;;;;8.94;100.00;101797.09;5287681;28;20021;-73
2022/09/19 02:55:57;;;;;;;6.00;1.63;;;;;;;8.95;100.00;101790.91;5285736;28;20035;-73
2022/09/19 02:58:37;;;;;;;5.75;1.75;;;;;;;8.88;100.00;101792.22;5284104;28;20032;-73
2022/09/19 03:01:15;;;;;;;10.57;1.65;;;;;;;8.83;100.00;101785.63;5285104;28;20496;-73
2022/09/19 03:06:57;;;;;;;7.28;1.95;;;;;;;8.85;100.00;101792.41;5282258;28;20024;-72
2022/09/19 03:09:30;;;;;;;9.82;2.30;;;;;;;8.70;100.00;101793.38;5288408;28;20020;-73
2022/09/19 03:12:09;;;;;;;7.82;1.80;;;;;;;8.75;100.00;101789.56;5279943;28;20027;-73
2022/09/19 03:14:40;;;;;;;7.00;1.60;;;;;;;8.66;100.00;101794.50;5282476;28;20075;-73
2022/09/19 03:17:16;;;;;;;9.23;2.30;;;;;;;8.66;100.00;101790.09;5282735;28;20032;-73
2022/09/19 03:19:48;;;;;;;6.53;1.60;;;;;;;8.59;100.00;101785.34;5281706;28;20051;-73
2022/09/19 03:22:19;;;;;;;13.15;2.22;;;;;;;8.64;100.00;101794.59;5286017;28;20025;-73
2022/09/19 03:24:51;;;;;;;9.00;2.38;;;;;;;8.65;100.00;101798.88;5283248;28;20036;-73
2022/09/19 03:27:22;;;;;;;7.93;1.67;;;;;;;8.66;100.00;101794.50;5291675;28;20028;-73
2022/09/19 03:29:53;;;;;;;8.68;1.50;;;;;;;8.69;100.00;101792.53;5288640;28;20016;-73
2022/09/19 03:32:25;;;;;;;5.53;1.40;;;;;;;8.75;100.00;101794.78;5286567;28;20107;-73
2022/09/19 03:34:56;;;;;;;7.82;2.78;;;;;;;8.73;100.00;101790.56;5285911;28;20029;-73
2022/09/19 03:37:27;;;;;;;10.35;2.08;;;;;;;8.79;100.00;101795.44;5286932;28;20070;-73
2022/09/19 03:39:59;;;;;;;7.32;1.90;;;;;;;8.78;100.00;101802.41;5278240;28;20035;-73
2022/09/19 03:42:35;;;;;;;6.80;1.70;;;;;;;8.82;100.00;101797.81;5286913;28;20020;-73
2022/09/19 03:45:06;;;;;;;6.75;1.80;;;;;;;8.88;100.00;101800.06;5286413;28;20555;-73
2022/09/19 03:47:38;;;;;;;9.25;1.77;;;;;;;8.92;100.00;101791.09;5288431;28;20025;-73
2022/09/19 03:50:09;;;;;;;5.93;2.17;;;;;;;8.99;100.00;101795.00;5285204;28;20056;-74
2022/09/19 03:52:41;;;;;;;12.13;2.63;;;;;;;8.96;100.00;101797.81;5287041;28;20074;-73
2022/09/19 03:55:12;;;;;;;10.48;1.73;;;;;;;9.03;100.00;101803.50;5288479;28;20441;-73
2022/09/19 03:57:44;;;;;;;12.13;2.33;;;;;;;9.05;100.00;101798.16;5285577;28;20035;-73
2022/09/19 04:00:15;;;;;;;10.82;1.70;;;;;;;9.07;100.00;101794.53;5278528;28;20029;-73
2022/09/19 04:02:46;;;;;;;12.52;2.45;;;;;;;9.08;100.00;101801.44;5285818;28;20055;-73
2022/09/19 04:05:18;;;;;;;10.05;2.20;;;;;;;9.08;100.00;101798.81;5289429;28;20024;-73
2022/09/19 04:07:50;;;;;;;9.18;1.90;;;;;;;9.09;100.00;101802.25;5282155;28;20020;-73
2022/09/19 04:10:21;;;;;;;6.68;1.80;;;;;;;9.08;100.00;101811.88;5288072;28;20138;-73
2022/09/19 04:12:53;;;;;;;10.00;2.00;;;;;;;9.07;100.00;101804.97;5282764;28;20107;-73
2022/09/19 04:15:24;;;;;;;13.00;2.03;;;;;;;9.10;100.00;101811.81;5282151;28;20035;-73
2022/09/19 04:17:55;;;;;;;8.02;1.88;;;;;;;9.10;100.00;101811.81;5285879;28;20040;-73
2022/09/19 04:20:29;;;;;;;9.38;2.00;;;;;;;9.14;100.00;101813.28;5285278;28;20630;-73
2022/09/19 04:23:00;;;;;;;11.65;2.33;;;;;;;9.14;100.00;101821.13;5288557;28;20027;-73
2022/09/19 04:25:35;;;;;;;7.07;1.80;;;;;;;9.14;100.00;101821.13;5282922;28;20032;-73
2022/09/19 04:28:09;;;;;;;8.98;1.83;;;;;;;9.08;100.00;101811.88;5286407;28;20373;-73
2022/09/19 04:30:40;;;;;;;10.35;1.88;;;;;;;9.08;100.00;101822.34;5285967;28;20042;-73
2022/09/19 04:33:14;;;;;;;6.95;2.00;;;;;;;9.14;100.00;101821.97;5287676;28;20470;-73
2022/09/19 04:35:45;;;;;;;10.43;1.85;;;;;;;9.07;100.00;101822.44;5284339;28;20029;-73
2022/09/19 04:38:18;;;;;;;10.43;2.45;;;;;;;9.15;100.00;101823.63;5284005;28;20036;-73
2022/09/19 04:40:51;;;;;;;8.80;1.88;;;;;;;9.19;100.00;101825.13;5285677;28;20560;-73
2022/09/19 04:43:24;;;;;;;7.70;1.98;;;;;;;9.22;100.00;101829.31;5282169;28;20025;-73
2022/09/19 04:45:56;;;;;;;9.95;2.55;;;;;;;9.23;100.00;101831.00;5282079;28;20477;-73
2022/09/19 04:48:28;;;;;;;7.22;1.60;;;;;;;9.23;100.00;101833.59;5279349;28;20111;-73
2022/09/19 04:50:59;;;;;;;11.48;2.08;;;;;;;9.22;100.00;101837.16;5285639;28;20026;-73
2022/09/19 04:53:30;;;;;;;8.30;2.03;;;;;;;9.21;100.00;101841.56;5280928;28;20500;-73
2022/09/19 04:56:02;;;;;;;11.60;2.20;;;;;;;9.25;100.00;101839.59;5283153;28;20035;-73
2022/09/19 04:58:33;;;;;;;10.38;2.08;;;;;;;9.22;100.00;101842.41;5289248;28;20027;-73
2022/09/19 05:01:05;;;;;;;9.02;1.75;;;;;;;9.26;100.00;101847.31;5288878;28;20036;-73
2022/09/19 05:03:36;;;;;;;6.22;1.83;;;;;;;9.27;100.00;101845.53;5283494;28;20137;-73
2022/09/19 05:06:07;;;;;;;10.48;1.90;;;;;;;9.26;100.00;101839.47;5282462;28;20148;-73
2022/09/19 05:08:40;;;;;;;11.07;2.08;;;;;;;9.29;100.00;101835.00;5286672;28;20066;-73
2022/09/19 05:11:11;;;;;;;9.00;2.08;;;;;;;9.32;100.00;101843.50;5285231;28;20359;-74
2022/09/19 05:13:42;;;;;;;8.43;1.98;;;;;;;9.34;100.00;101839.00;5287382;28;20077;-74
2022/09/19 05:16:15;;;;;;;7.55;1.80;;;;;;;9.39;100.00;101850.00;5286639;28;20048;-73
2022/09/19 05:18:47;;;;;;;9.48;2.00;;;;;;;9.46;100.00;101853.06;5284702;28;20095;-74
2022/09/19 05:21:18;;;;;;;9.32;2.33;;;;;;;9.47;100.00;101849.50;5287377;28;20122;-74
2022/09/19 05:23:49;;;;;;;10.13;2.67;;;;;;;9.50;100.00;101852.75;5288303;28;20028;-74
2022/09/19 05:26:20;;;;;;;7.65;2.28;;;;;;;9.50;100.00;101844.91;5292174;28;20089;-74
2022/09/19 05:28:52;;;;;;;10.85;1.90;;;;;;;9.57;100.00;101860.22;5289508;28;20392;-73
2022/09/19 05:31:25;;;;;;;9.27;2.17;;;;;;;9.58;100.00;101860.13;5288363;28;20556;-74
2022/09/19 05:33:56;;;;;;;8.15;2.20;;;;;;;9.61;100.00;101862.53;5291868;28;20020;-74
2022/09/19 05:36:30;;;;;;;6.47;1.73;;;;;;;9.66;100.00;101864.84;5288005;28;20086;-74
2022/09/19 05:39:02;;;;;;;8.73;1.90;;;;;;;9.63;100.00;101863.28;5290309;28;20021;-74
2022/09/19 05:41:35;;;;;;;11.02;2.28;;;;;;;9.66;100.00;101865.72;5286329;28;20539;-74
2022/09/19 05:44:06;;;;;;;11.55;1.70;;;;;;;9.68;100.00;101870.84;5292728;28;20043;-74
2022/09/19 05:46:39;;;;;;;8.57;2.03;;;;;;;9.70;100.00;101874.22;5291700;28;20024;-74
2022/09/19 05:49:10;;;;;;;8.10;2.03;;;;;;;9.70;100.00;101875.03;5288481;28;20465;-74
2022/09/19 05:51:41;;;;;;;9.00;2.50;;;;;;;9.70;100.00;101866.38;5285486;28;20075;-73
2022/09/19 05:54:12;;;;;;;11.80;2.22;;;;;;;9.74;100.00;101873.06;5287794;28;20023;-73
2022/09/19 05:56:49;;;;;;;9.25;1.80;;;;;;;9.73;100.00;101880.06;5287282;28;20029;-73
2022/09/19 05:59:20;;;;;;;11.20;2.42;;;;;;;9.75;100.00;101877.38;5289548;28;20029;-73
2022/09/19 06:01:51;;;;;;;6.22;1.95;;;;;;;9.78;100.00;101877.16;5284419;28;20024;-73
2022/09/19 06:04:25;;;;;;;14.07;2.60;;;;;;;9.76;100.00;101871.19;5287398;28;20017;-73
2022/09/19 06:06:56;;;;;;;11.35;2.13;;;;;;;9.79;100.00;101873.59;5283937;28;20110;-73
2022/09/19 06:09:28;;;;;;;7.82;2.00;;;;;;;9.82;100.00;101877.81;5290558;28;20116;-73
2022/09/19 06:11:59;;;;;;;9.82;2.35;;;;;;;9.89;100.00;101881.72;5280900;28;20020;-73
2022/09/19 06:14:31;;;;;;;11.85;2.08;;;;;;;9.96;100.00;101880.34;5285622;28;20039;-73
2022/09/19 06:17:02;;;;;;;10.48;2.80;;;;;;;10.08;100.00;101883.97;5264613;28;20533;-73
2022/09/19 06:19:33;;;;;;;13.20;2.55;;;;;;;10.17;100.00;101880.72;5281403;28;20405;-73
2022/09/19 06:22:05;;;;;;;14.68;2.80;;;;;;;10.21;100.00;101880.41;5275368;28;20554;-73
2022/09/19 06:24:36;;;;;;;10.52;2.40;;;;;;;10.28;100.00;101888.72;5271034;28;20028;-73
2022/09/19 06:27:09;;;;;;;15.15;2.83;;;;;;;10.35;100.00;101892.63;5284629;28;20041;-73
2022/09/19 06:29:40;;;;;;;14.98;3.08;;;;;;;10.45;100.00;101882.34;5282529;28;20127;-73
2022/09/19 06:32:11;;;;;;;10.55;3.30;;;;;;;10.46;100.00;101887.50;5286733;28;20559;-73
2022/09/19 06:34:43;;;;;;;17.10;2.90;;;;;;;10.52;100.00;101888.00;5289329;28;20070;-73
2022/09/19 06:37:15;;;;;;;11.02;2.80;;;;;;;10.53;100.00;101893.16;5286300;28;20694;-73
2022/09/19 06:39:46;;;;;;;14.05;2.55;;;;;;;10.56;100.00;101895.56;5280397;28;20025;-73
2022/09/19 06:42:18;;;;;;;16.25;2.85;;;;;;;10.65;100.00;101902.81;5280738;28;20095;-73
2022/09/19 06:44:49;;;;;;;13.18;2.45;;;;;;;10.62;100.00;101876.81;5283371;28;20023;-73
2022/09/19 06:47:20;;;;;;;9.77;2.58;;;;;;;10.76;100.00;101903.84;5282357;28;20027;-73
2022/09/19 06:49:52;;;;;;;9.57;2.88;;;;;;;10.93;100.00;101903.53;5279363;28;20016;-73
2022/09/19 06:52:23;;;;;;;9.40;2.42;;;;;;;10.95;100.00;101906.91;5288279;28;20078;-73
2022/09/19 06:54:55;;;;;;;14.05;2.70;;;;;;;11.07;100.00;101907.81;5277174;28;20052;-73
2022/09/19 06:57:27;;;;;;;14.55;4.00;;;;;;;11.16;100.00;101918.50;5281193;28;20024;-73
2022/09/19 07:00:00;;;;;;;11.98;3.10;;;;;;;11.21;100.00;101912.91;5285178;28;20024;-72
2022/09/19 07:02:31;;;;;;;;;;;;;;;11.80;100.00;101923.56;5285520;28;20086;-73
2022/09/19 07:05:03;;;;;;;7.88;2.40;;;;;;;11.56;100.00;101922.72;5276094;28;19935;-73
2022/09/19 07:07:34;;;;;;;8.52;2.40;;;;;;;11.60;100.00;101927.63;5276327;28;20035;-73
2022/09/19 07:10:06;;;;;;;9.07;2.65;;;;;;;11.74;100.00;101928.41;5277118;28;20024;-73
2022/09/19 07:12:38;;;;;;;13.02;3.15;;;;;;;11.76;100.00;101929.97;5285066;28;20036;-73
2022/09/19 07:15:09;;;;;;;13.13;2.97;;;;;;;11.88;100.00;101934.34;5283254;28;20031;-73
2022/09/19 07:17:40;;;;;;;12.38;2.30;;;;;;;11.98;100.00;101942.41;5284035;28;20165;-73
2022/09/19 07:20:11;;;;;;;9.23;2.83;;;;;;;12.08;100.00;101938.16;5277713;28;20035;-73
2022/09/19 07:22:43;;;;;;;12.95;2.92;;;;;;;12.13;100.00;101941.28;5287461;28;20052;-73
2022/09/19 07:25:14;;;;;;;13.60;2.67;;;;;;;12.20;100.00;101946.06;5279816;28;20029;-73
2022/09/19 07:27:45;;;;;;;13.52;2.80;;;;;;;12.26;100.00;101951.72;5287349;28;20028;-73
2022/09/19 07:30:17;;;;;;;10.90;2.33;;;;;;;12.29;100.00;101946.25;5286352;28;20082;-73
2022/09/19 07:32:48;;;;;;;11.73;2.25;;;;;;;12.36;100.00;101947.47;5286292;28;20020;-73
2022/09/19 07:35:19;;;;;;;9.68;3.00;;;;;;;12.39;100.00;101965.63;5288272;28;20061;-73
2022/09/19 07:37:51;;;;;;;10.27;2.85;;;;;;;12.45;100.00;101969.56;5284033;28;20020;-73
2022/09/19 07:40:23;;;;;;;9.57;2.22;;;;;;;12.48;100.00;101963.25;5285841;28;20052;-73
2022/09/19 07:43:04;;;;;;;10.40;2.47;;;;;;;12.60;100.00;101965.78;5293125;28;20099;-73
2022/09/19 07:45:36;;;;;;;7.18;2.25;;;;;;;12.64;100.00;101971.66;5282651;28;20028;-73
2022/09/19 07:48:07;;;;;;;15.18;2.50;;;;;;;12.70;100.00;101976.47;5283083;28;20027;-73
2022/09/19 07:50:39;;;;;;;11.60;2.80;;;;;;;12.76;100.00;101962.84;5271570;28;20021;-73
2022/09/19 07:53:13;;;;;;;7.97;2.60;;;;;;;12.85;100.00;101975.31;5279406;28;20056;-73
2022/09/19 07:55:53;;;;;;;9.13;2.53;;;;;;;13.00;100.00;101964.56;5288363;28;20042;-73
2022/09/19 07:58:26;;;;;;;10.85;2.30;;;;;;;12.96;100.00;101969.22;5286392;28;20457;-73
2022/09/19 08:01:02;;;;;;;11.45;2.85;;;;;;;12.96;100.00;101973.66;5284344;28;20082;-74
2022/09/19 08:03:33;;;;;;;10.63;1.95;;;;;;;13.01;100.00;101977.59;5279937;28;20111;-73
2022/09/19 08:06:05;;;;;;;14.75;2.70;;;;;;;13.09;100.00;101987.53;5283307;28;20115;-74
2022/09/19 08:08:36;;;;;;;13.00;1.90;;;;;;;13.08;100.00;101976.16;5279417;28;20430;-74
2022/09/19 08:11:07;;;;;;;8.40;2.15;;;;;;;13.16;100.00;101978.19;5276013;28;20466;-73
2022/09/19 08:13:38;;;;;;;16.70;2.35;;;;;;;13.19;100.00;101988.50;5291073;28;20035;-73
2022/09/19 08:16:10;;;;;;;13.98;2.30;;;;;;;13.27;100.00;101986.13;5283158;28;20024;-73
2022/09/19 08:18:44;;;;;;;13.35;2.55;;;;;;;13.39;100.00;101990.44;5284294;28;20135;-75
2022/09/19 08:21:15;;;;;;;11.82;2.63;;;;;;;13.40;100.00;101993.91;5288193;28;20020;-73
2022/09/19 08:23:47;;;;;;;12.70;3.10;;;;;;;13.45;100.00;101994.38;5282496;28;20020;-73
2022/09/19 08:26:18;;;;;;;12.68;2.83;;;;;;;13.51;100.00;101990.41;5285549;28;20024;-73
2022/09/19 08:28:50;;;;;;;13.85;2.88;;;;;;;13.60;100.00;101995.81;5286847;28;20033;-74
2022/09/19 08:31:21;;;;;;;9.95;2.45;;;;;;;13.62;100.00;102009.69;5282720;28;20042;-74
2022/09/19 08:33:53;;;;;;;11.55;2.38;;;;;;;13.65;100.00;102003.34;5288518;28;20031;-73
2022/09/19 08:36:24;;;;;;;14.07;2.95;;;;;;;13.71;100.00;102005.47;5283866;28;20059;-73
2022/09/19 08:38:55;;;;;;;12.00;2.55;;;;;;;13.70;100.00;101993.25;5284777;28;20033;-73
2022/09/19 08:41:53;;;;;;;9.48;2.67;;;;;;;14.02;100.00;102001.22;5286813;28;20028;-73
2022/09/19 08:44:52;;;;;;;11.13;2.72;;;;;;;14.24;100.00;102008.19;5283298;28;20021;-73
2022/09/19 08:47:27;;;;;;;10.82;2.25;;;;;;;14.24;100.00;102013.47;5282440;28;20020;-73
2022/09/19 08:50:11;;;;;;;14.43;3.13;;;;;;;14.33;100.00;102019.81;5287881;28;20020;-74
2022/09/19 08:52:49;;;;;;;11.27;2.38;;;;;;;14.31;100.00;102021.72;5285801;28;20053;-73
2022/09/19 08:55:23;;;;;;;10.02;2.25;;;;;;;14.27;100.00;102015.88;5280855;28;20501;-74
2022/09/19 08:58:01;;;;;;;8.85;2.35;;;;;;;14.39;100.00;102014.03;5285015;28;20067;-73
2022/09/19 09:00:38;;;;;;;11.30;2.13;;;;;;;14.38;100.00;102012.34;5288035;28;20028;-73
2022/09/19 09:03:20;;;;;;;9.07;2.40;;;;;;;14.61;100.00;102010.47;5289736;28;20028;-74
2022/09/19 09:06:00;;;;;;;8.57;2.47;;;;;;;14.78;100.00;102011.72;5291524;28;20032;-73
2022/09/19 09:08:56;;;;;;;8.43;1.90;;;;;;;14.93;100.00;102010.44;5290313;28;20032;-73
2022/09/19 09:11:58;;;;;;;9.88;1.90;;;;;;;15.20;100.00;102006.41;5288434;28;20024;-73
2022/09/19 09:15:07;;;;;;;10.90;2.28;;;;;;;15.36;100.00;102013.81;5286994;28;20501;-73
2022/09/19 09:18:16;;;;;;;10.23;2.20;;;;;;;15.66;100.00;102005.91;5290823;28;20111;-73
2022/09/19 09:21:12;;;;;;;9.30;2.05;;;;;;;15.60;100.00;102002.91;5272187;28;20048;-74
2022/09/19 09:23:50;;;;;;;6.68;1.70;;;;;;;15.72;100.00;102007.16;5275520;28;20028;-73
2022/09/19 09:26:26;;;;;;;8.68;1.95;;;;;;;15.70;100.00;102015.22;5288005;28;20029;-73
2022/09/19 09:29:12;;;;;;;8.18;2.03;;;;;;;15.95;100.00;102010.44;5287639;28;20035;-74
2022/09/19 09:31:52;;;;;;;8.73;1.83;;;;;;;15.96;100.00;102012.09;5288345;28;20032;-73
2022/09/19 09:34:33;;;;;;;8.98;1.55;;;;;;;16.06;100.00;101994.41;5291717;28;20012;-73
2022/09/19 09:37:25;;;;;;;8.85;2.15;;;;;;;16.07;100.00;101995.28;5289751;28;20028;-74
2022/09/19 09:40:12;;;;;;;10.15;1.70;;;;;;;16.29;100.00;102003.78;5284731;28;20419;-74
2022/09/19 09:42:50;;;;;;;5.80;1.90;;;;;;;16.34;100.00;102008.63;5292565;28;20529;-73
2022/09/19 09:45:42;;;;;;;7.20;1.45;;;;;;;16.67;100.00;102015.31;5288706;28;20408;-74
2022/09/19 09:48:29;;;;;;;8.20;1.70;;;;;;;16.81;100.00;102008.75;5287196;28;20032;-74
2022/09/19 09:51:14;;;;;;;5.38;1.75;;;;;;;16.94;100.00;102008.47;5288965;28;20505;-74
2022/09/19 09:57:19;;;;;;;8.10;1.77;;;;;;;17.01;100.00;102013.03;5284545;28;20028;-74
2022/09/19 10:05:58;;;;;;;9.30;1.83;;;;;;;16.88;100.00;102009.84;5284435;28;20079;-74
2022/09/19 10:08:46;;;;;;;6.13;1.70;;;;;;;16.77;100.00;102012.66;5283527;28;20024;-74
2022/09/19 10:11:28;;;;;;;6.18;1.38;;;;;;;16.70;100.00;102016.81;5285177;28;20024;-74
2022/09/19 10:14:01;;;;;;;7.57;1.35;;;;;;;16.61;100.00;102015.03;5287372;28;20054;-74
2022/09/19 10:16:34;;;;;;;6.78;1.42;;;;;;;16.65;100.00;102017.25;5287866;28;20039;-74
2022/09/19 10:19:45;;;;;;;5.63;1.67;;;;;;;16.93;100.00;102015.56;5288644;28;20051;-74
2022/09/19 10:22:17;;;;;;;4.05;1.25;;;;;;;16.80;100.00;102016.84;5287191;28;20115;-74
2022/09/19 10:24:51;;;;;;;5.75;1.20;;;;;;;16.88;100.00;102016.97;5287287;28;20028;-74
2022/09/19 10:27:25;;;;;;;4.88;1.20;;;;;;;16.81;100.00;102021.16;5287489;28;20096;-74
2022/09/19 10:30:11;;;;;;;9.82;2.05;;;;;;;16.93;100.00;102020.00;5287946;28;20480;-74
2022/09/19 10:32:43;;;;;;;6.57;2.00;;;;;;;16.84;100.00;102020.88;5290398;28;20233;-74
2022/09/19 10:35:31;;;;;;;5.63;1.40;;;;;;;17.13;100.00;102019.00;5286871;28;20611;-74
2022/09/19 10:38:14;;;;;;;8.30;1.90;;;;;;;17.08;100.00;102020.38;5288231;28;20063;-74
2022/09/19 10:40:56;;;;;;;6.60;1.58;;;;;;;17.11;100.00;102026.22;5289088;28;20032;-74
2022/09/19 10:43:36;;;;;;;8.10;1.75;;;;;;;16.80;100.00;102030.06;5288211;28;20035;-74
2022/09/19 10:46:16;;;;;;;4.55;1.52;;;;;;;16.53;100.00;102026.31;5288062;28;20118;-73
2022/09/19 10:48:51;;;;;;;10.43;1.98;;;;;;;16.30;100.00;102023.94;5275886;28;20027;-74
2022/09/19 10:51:33;;;;;;;6.82;1.88;;;;;;;16.29;100.00;102013.53;5284065;28;20123;-74
2022/09/19 10:54:36;;;;;;;10.13;1.98;;;;;;;16.47;100.00;102011.81;5286790;28;20029;-73
2022/09/19 10:57:36;;;;;;;10.88;2.15;;;;;;;16.58;100.00;102013.50;5279304;28;20449;-74
2022/09/19 11:00:31;;;;;;;8.27;2.00;;;;;;;16.74;100.00;102005.88;5286639;28;20051;-74
2022/09/19 11:03:16;;;;;;;8.18;1.52;;;;;;;16.90;100.00;102012.38;5285559;28;20033;-74
2022/09/19 11:06:02;;;;;;;9.35;1.77;;;;;;;17.01;100.00;102017.50;5287502;28;20074;-74
2022/09/19 11:08:51;;;;;;;10.57;1.45;;;;;;;16.96;100.00;102020.56;5286165;28;20043;-74
2022/09/19 11:11:47;;;;;;;10.75;1.67;;;;;;;16.80;100.00;102024.78;5287244;28;20048;-74
2022/09/19 11:14:32;;;;;;;6.70;1.30;;;;;;;16.75;100.00;102025.22;5288668;28;20021;-74
2022/09/19 11:17:04;;;;;;;9.32;1.23;;;;;;;16.69;100.00;102018.63;5289627;28;20039;-74
2022/09/19 11:19:53;;;;;;;7.25;1.65;;;;;;;17.00;100.00;102014.00;5285508;28;20044;-74
2022/09/19 11:22:41;;;;;;;7.30;1.55;;;;;;;16.95;100.00;102010.94;5285010;28;20117;-74
2022/09/19 11:25:41;;;;;;;7.18;1.30;;;;;;;17.26;100.00;102003.59;5285112;28;20040;-74
2022/09/19 11:28:43;;;;;;;9.88;2.20;;;;;;;17.23;100.00;102011.81;5287963;28;20056;-74
2022/09/19 11:31:44;;;;;;;7.10;1.73;;;;;;;17.22;100.00;101996.09;5286802;28;20466;-74
2022/09/19 11:34:40;;;;;;;4.82;1.17;;;;;;;17.11;100.00;102010.34;5285884;28;20029;-74
2022/09/19 11:37:14;;;;;;;8.07;2.35;;;;;;;16.82;100.00;102006.94;5285735;28;20508;-74
2022/09/19 11:39:47;;;;;;;5.93;1.63;;;;;;;16.74;100.00;102012.94;5287653;28;20024;-74
2022/09/19 11:42:35;;;;;;;7.95;1.35;;;;;;;16.91;100.00;102021.97;5282566;28;20032;-74
2022/09/19 11:45:13;;;;;;;9.73;2.25;;;;;;;16.81;100.00;102007.91;5284312;28;20085;-74
2022/09/19 11:48:22;;;;;;;9.50;1.58;;;;;;;17.10;100.00;102013.16;5287092;28;20473;-74
2022/09/19 11:51:15;;;;;;;8.25;1.50;;;;;;;17.49;100.00;102008.53;5284753;28;20104;-74
2022/09/19 11:53:46;;;;;;;;;;;;;;;18.02;100.00;102009.63;5287076;28;20031;-74
2022/09/19 11:57:17;;;;;;;6.85;1.67;;;;;;;17.98;100.00;102006.47;5286143;28;20399;-74
2022/09/19 12:00:07;;;;;;;8.52;1.75;;;;;;;17.84;100.00;102001.66;5255915;28;20079;-74
2022/09/19 12:02:56;;;;;;;4.90;1.10;;;;;;;17.75;100.00;102006.03;5285611;28;20438;-74
2022/09/19 12:05:36;;;;;;;5.25;1.30;;;;;;;17.73;100.00;102000.03;5284490;28;20025;-74
2022/09/19 12:08:25;;;;;;;6.53;1.75;;;;;;;17.73;100.00;102000.03;5284574;28;20031;-74
2022/09/19 12:11:12;;;;;;;6.05;1.67;;;;;;;17.69;100.00;102004.81;5289026;28;20473;-74
2022/09/19 12:13:53;;;;;;;5.68;1.65;;;;;;;17.66;100.00;102002.44;5286906;28;20024;-74
2022/09/19 12:16:42;;;;;;;5.72;1.33;;;;;;;17.80;100.00;101997.63;5284171;28;20130;-74
2022/09/19 12:19:24;;;;;;;5.88;1.23;;;;;;;17.73;100.00;101986.78;5288457;28;20127;-74
2022/09/19 12:22:03;;;;;;;5.47;1.30;;;;;;;18.04;100.00;101999.72;5286071;28;20043;-74